sensor_id;sensor_type;location;lat;lon;timestamp;temperature;humidity
21115;DHT22;10715;48.546;9.896;2023-06-22T00:02:14;18.50;99.90
21115;DHT22;10715;48.546;9.896;2023-06-22T00:04:39;18.40;99.90
21115;DHT22;10715;48.546;9.896;2023-06-22T00:07:05;18.40;99.90
21115;DHT22;10715;48.546;9.896;2023-06-22T00:09:31;18.40;99.90
21115;DHT22;10715;48.546;9.896;2023-06-22T00:11:57;18.40;99.90
21115;DHT22;10715;48.546;9.896;2023-06-22T00:14:23;18.30;99.90
21115;DHT22;10715;48.546;9.896;2023-06-22T00:16:49;18.30;99.90
21115;DHT22;10715;48.546;9.896;2023-06-22T00:19:20;18.20;99.90
21115;DHT22;10715;48.546;9.896;2023-06-22T00:21:47;18.20;99.90
21115;DHT22;10715;48.546;9.896;2023-06-22T00:24:13;18.10;99.90
21115;DHT22;10715;48.546;9.896;2023-06-22T00:26:39;18.10;99.90
21115;DHT22;10715;48.546;9.896;2023-06-22T00:29:05;18.00;99.90
21115;DHT22;10715;48.546;9.896;2023-06-22T00:31:30;18.00;99.90
21115;DHT22;10715;48.546;9.896;2023-06-22T00:33:56;18.00;99.90
21115;DHT22;10715;48.546;9.896;2023-06-22T00:36:22;17.90;99.90
21115;DHT22;10715;48.546;9.896;2023-06-22T00:38:50;17.90;99.90
21115;DHT22;10715;48.546;9.896;2023-06-22T00:41:17;17.90;99.90
21115;DHT22;10715;48.546;9.896;2023-06-22T00:43:43;17.90;99.90
21115;DHT22;10715;48.546;9.896;2023-06-22T00:46:09;17.80;99.90
21115;DHT22;10715;48.546;9.896;2023-06-22T00:48:35;17.80;99.90
21115;DHT22;10715;48.546;9.896;2023-06-22T00:51:02;17.80;99.90
21115;DHT22;10715;48.546;9.896;2023-06-22T00:53:28;17.70;99.90
21115;DHT22;10715;48.546;9.896;2023-06-22T00:55:54;17.70;99.90
21115;DHT22;10715;48.546;9.896;2023-06-22T00:58:21;17.70;99.90
21115;DHT22;10715;48.546;9.896;2023-06-22T01:00:51;17.70;99.90
21115;DHT22;10715;48.546;9.896;2023-06-22T01:03:17;17.60;99.90
21115;DHT22;10715;48.546;9.896;2023-06-22T01:05:44;17.60;99.90
21115;DHT22;10715;48.546;9.896;2023-06-22T01:18:52;17.50;99.90
21115;DHT22;10715;48.546;9.896;2023-06-22T01:21:19;17.40;99.90
21115;DHT22;10715;48.546;9.896;2023-06-22T01:28:55;17.40;99.90
21115;DHT22;10715;48.546;9.896;2023-06-22T01:31:25;17.30;99.90
21115;DHT22;10715;48.546;9.896;2023-06-22T01:33:57;17.30;99.90
21115;DHT22;10715;48.546;9.896;2023-06-22T01:36:24;17.20;99.90
21115;DHT22;10715;48.546;9.896;2023-06-22T01:38:53;17.20;99.90
21115;DHT22;10715;48.546;9.896;2023-06-22T01:41:24;17.20;99.90
21115;DHT22;10715;48.546;9.896;2023-06-22T01:43:50;17.10;99.90
21115;DHT22;10715;48.546;9.896;2023-06-22T01:46:18;17.20;99.90
21115;DHT22;10715;48.546;9.896;2023-06-22T01:48:45;17.10;99.90
21115;DHT22;10715;48.546;9.896;2023-06-22T01:51:12;17.10;99.90
21115;DHT22;10715;48.546;9.896;2023-06-22T01:53:38;17.10;99.90
21115;DHT22;10715;48.546;9.896;2023-06-22T01:56:04;17.10;99.90
21115;DHT22;10715;48.546;9.896;2023-06-22T01:58:30;17.00;99.90
21115;DHT22;10715;48.546;9.896;2023-06-22T02:01:07;17.00;99.90
21115;DHT22;10715;48.546;9.896;2023-06-22T02:03:38;17.00;99.90
21115;DHT22;10715;48.546;9.896;2023-06-22T02:06:11;17.00;99.90
21115;DHT22;10715;48.546;9.896;2023-06-22T02:08:53;17.00;99.90
21115;DHT22;10715;48.546;9.896;2023-06-22T02:11:21;16.90;99.90
21115;DHT22;10715;48.546;9.896;2023-06-22T02:13:48;16.90;99.90
21115;DHT22;10715;48.546;9.896;2023-06-22T02:16:16;16.90;99.90
21115;DHT22;10715;48.546;9.896;2023-06-22T02:18:50;16.80;99.90
21115;DHT22;10715;48.546;9.896;2023-06-22T02:21:17;16.80;99.90
21115;DHT22;10715;48.546;9.896;2023-06-22T02:23:43;16.80;99.90
21115;DHT22;10715;48.546;9.896;2023-06-22T02:26:09;16.70;99.90
21115;DHT22;10715;48.546;9.896;2023-06-22T02:28:35;16.70;99.90
21115;DHT22;10715;48.546;9.896;2023-06-22T02:31:01;16.70;99.90
21115;DHT22;10715;48.546;9.896;2023-06-22T02:33:27;16.70;99.90
21115;DHT22;10715;48.546;9.896;2023-06-22T02:35:52;16.60;99.90
21115;DHT22;10715;48.546;9.896;2023-06-22T02:38:18;16.60;99.90
21115;DHT22;10715;48.546;9.896;2023-06-22T02:40:45;16.60;99.90
21115;DHT22;10715;48.546;9.896;2023-06-22T02:43:12;16.60;99.90
21115;DHT22;10715;48.546;9.896;2023-06-22T02:45:37;16.60;99.90
21115;DHT22;10715;48.546;9.896;2023-06-22T02:48:04;16.50;99.90
21115;DHT22;10715;48.546;9.896;2023-06-22T02:50:29;16.50;99.90
21115;DHT22;10715;48.546;9.896;2023-06-22T02:52:55;16.50;99.90
21115;DHT22;10715;48.546;9.896;2023-06-22T02:55:21;16.50;99.90
21115;DHT22;10715;48.546;9.896;2023-06-22T02:57:46;16.40;99.90
21115;DHT22;10715;48.546;9.896;2023-06-22T03:00:14;16.40;99.90
21115;DHT22;10715;48.546;9.896;2023-06-22T03:02:44;16.40;99.90
21115;DHT22;10715;48.546;9.896;2023-06-22T03:05:10;16.40;99.90
21115;DHT22;10715;48.546;9.896;2023-06-22T03:07:43;16.30;99.90
21115;DHT22;10715;48.546;9.896;2023-06-22T03:10:09;16.30;99.90
21115;DHT22;10715;48.546;9.896;2023-06-22T03:12:39;16.30;99.90
21115;DHT22;10715;48.546;9.896;2023-06-22T03:15:09;16.30;99.90
21115;DHT22;10715;48.546;9.896;2023-06-22T03:17:36;16.30;99.90
21115;DHT22;10715;48.546;9.896;2023-06-22T03:20:03;16.20;99.90
21115;DHT22;10715;48.546;9.896;2023-06-22T03:22:35;16.20;99.90
21115;DHT22;10715;48.546;9.896;2023-06-22T03:25:01;16.20;99.90
21115;DHT22;10715;48.546;9.896;2023-06-22T03:27:27;16.20;99.90
21115;DHT22;10715;48.546;9.896;2023-06-22T03:29:52;16.10;99.90
21115;DHT22;10715;48.546;9.896;2023-06-22T03:32:18;16.10;99.90
21115;DHT22;10715;48.546;9.896;2023-06-22T03:34:44;16.10;99.90
21115;DHT22;10715;48.546;9.896;2023-06-22T03:37:13;16.10;99.90
21115;DHT22;10715;48.546;9.896;2023-06-22T03:39:40;16.00;99.90
21115;DHT22;10715;48.546;9.896;2023-06-22T03:42:06;16.00;99.90
21115;DHT22;10715;48.546;9.896;2023-06-22T03:44:32;16.00;99.90
21115;DHT22;10715;48.546;9.896;2023-06-22T03:46:57;16.00;99.90
21115;DHT22;10715;48.546;9.896;2023-06-22T03:49:23;16.00;99.90
21115;DHT22;10715;48.546;9.896;2023-06-22T03:51:49;16.00;99.90
21115;DHT22;10715;48.546;9.896;2023-06-22T03:54:15;16.00;99.90
21115;DHT22;10715;48.546;9.896;2023-06-22T03:56:40;16.00;99.90
21115;DHT22;10715;48.546;9.896;2023-06-22T03:59:06;16.00;99.90
21115;DHT22;10715;48.546;9.896;2023-06-22T04:01:32;16.00;99.90
21115;DHT22;10715;48.546;9.896;2023-06-22T04:03:57;16.00;99.90
21115;DHT22;10715;48.546;9.896;2023-06-22T04:06:23;16.00;99.90
21115;DHT22;10715;48.546;9.896;2023-06-22T04:08:49;15.90;99.90
21115;DHT22;10715;48.546;9.896;2023-06-22T04:11:17;15.90;99.90
21115;DHT22;10715;48.546;9.896;2023-06-22T04:13:43;15.90;99.90
21115;DHT22;10715;48.546;9.896;2023-06-22T04:16:09;15.90;99.90
21115;DHT22;10715;48.546;9.896;2023-06-22T04:18:35;15.90;99.90
21115;DHT22;10715;48.546;9.896;2023-06-22T04:21:02;15.90;99.90
21115;DHT22;10715;48.546;9.896;2023-06-22T04:23:27;15.90;99.90
21115;DHT22;10715;48.546;9.896;2023-06-22T04:25:53;16.00;99.90
21115;DHT22;10715;48.546;9.896;2023-06-22T04:28:19;15.90;99.90
21115;DHT22;10715;48.546;9.896;2023-06-22T04:30:44;16.00;99.90
21115;DHT22;10715;48.546;9.896;2023-06-22T04:33:16;16.00;99.90
21115;DHT22;10715;48.546;9.896;2023-06-22T04:35:45;16.00;99.90
21115;DHT22;10715;48.546;9.896;2023-06-22T04:38:12;16.00;99.90
21115;DHT22;10715;48.546;9.896;2023-06-22T04:40:39;16.10;99.90
21115;DHT22;10715;48.546;9.896;2023-06-22T04:43:05;16.10;99.90
21115;DHT22;10715;48.546;9.896;2023-06-22T04:45:32;16.10;99.90
21115;DHT22;10715;48.546;9.896;2023-06-22T04:47:58;16.20;99.90
21115;DHT22;10715;48.546;9.896;2023-06-22T04:50:24;16.20;99.90
21115;DHT22;10715;48.546;9.896;2023-06-22T04:52:51;16.30;99.90
21115;DHT22;10715;48.546;9.896;2023-06-22T04:55:17;16.40;99.90
21115;DHT22;10715;48.546;9.896;2023-06-22T04:57:47;16.50;99.90
21115;DHT22;10715;48.546;9.896;2023-06-22T05:00:17;16.60;99.90
21115;DHT22;10715;48.546;9.896;2023-06-22T05:02:44;16.60;99.90
21115;DHT22;10715;48.546;9.896;2023-06-22T05:05:11;16.70;99.90
21115;DHT22;10715;48.546;9.896;2023-06-22T05:07:50;16.80;99.90
21115;DHT22;10715;48.546;9.896;2023-06-22T05:10:19;16.90;99.90
21115;DHT22;10715;48.546;9.896;2023-06-22T05:12:46;17.00;99.90
21115;DHT22;10715;48.546;9.896;2023-06-22T05:15:12;17.20;99.90
21115;DHT22;10715;48.546;9.896;2023-06-22T05:17:38;17.40;99.90
21115;DHT22;10715;48.546;9.896;2023-06-22T05:20:12;17.50;99.90
21115;DHT22;10715;48.546;9.896;2023-06-22T05:22:39;17.70;99.90
21115;DHT22;10715;48.546;9.896;2023-06-22T05:25:08;17.80;99.90
21115;DHT22;10715;48.546;9.896;2023-06-22T05:27:34;17.90;99.90
21115;DHT22;10715;48.546;9.896;2023-06-22T05:30:08;18.00;99.90
21115;DHT22;10715;48.546;9.896;2023-06-22T05:32:34;18.20;99.90
21115;DHT22;10715;48.546;9.896;2023-06-22T05:35:02;18.30;99.90
21115;DHT22;10715;48.546;9.896;2023-06-22T05:37:28;18.40;99.90
21115;DHT22;10715;48.546;9.896;2023-06-22T05:39:54;18.50;99.90
21115;DHT22;10715;48.546;9.896;2023-06-22T05:42:21;18.60;99.90
21115;DHT22;10715;48.546;9.896;2023-06-22T05:44:47;18.70;99.90
21115;DHT22;10715;48.546;9.896;2023-06-22T05:47:13;18.80;99.90
21115;DHT22;10715;48.546;9.896;2023-06-22T05:49:38;18.90;99.90
21115;DHT22;10715;48.546;9.896;2023-06-22T05:52:04;19.00;99.90
21115;DHT22;10715;48.546;9.896;2023-06-22T05:54:30;19.10;99.90
21115;DHT22;10715;48.546;9.896;2023-06-22T05:56:56;19.20;99.90
21115;DHT22;10715;48.546;9.896;2023-06-22T05:59:22;19.20;99.90
21115;DHT22;10715;48.546;9.896;2023-06-22T06:01:48;19.30;99.90
21115;DHT22;10715;48.546;9.896;2023-06-22T06:04:19;19.40;99.90
21115;DHT22;10715;48.546;9.896;2023-06-22T06:06:45;19.50;99.90
21115;DHT22;10715;48.546;9.896;2023-06-22T06:09:13;19.50;99.90
21115;DHT22;10715;48.546;9.896;2023-06-22T06:11:39;19.60;99.90
21115;DHT22;10715;48.546;9.896;2023-06-22T06:14:05;19.80;99.90
21115;DHT22;10715;48.546;9.896;2023-06-22T06:16:31;20.00;99.90
21115;DHT22;10715;48.546;9.896;2023-06-22T06:18:57;20.20;99.90
21115;DHT22;10715;48.546;9.896;2023-06-22T06:21:23;20.30;99.90
21115;DHT22;10715;48.546;9.896;2023-06-22T06:23:49;20.50;99.90
21115;DHT22;10715;48.546;9.896;2023-06-22T06:26:15;20.70;99.90
21115;DHT22;10715;48.546;9.896;2023-06-22T06:28:42;20.90;99.90
21115;DHT22;10715;48.546;9.896;2023-06-22T06:31:09;21.00;99.90
21115;DHT22;10715;48.546;9.896;2023-06-22T06:33:35;21.20;99.90
21115;DHT22;10715;48.546;9.896;2023-06-22T06:36:01;21.30;99.90
21115;DHT22;10715;48.546;9.896;2023-06-22T06:38:29;21.40;99.90
21115;DHT22;10715;48.546;9.896;2023-06-22T06:40:55;21.50;99.90
21115;DHT22;10715;48.546;9.896;2023-06-22T06:43:21;21.70;99.90
21115;DHT22;10715;48.546;9.896;2023-06-22T06:45:46;21.80;99.90
21115;DHT22;10715;48.546;9.896;2023-06-22T06:48:12;21.90;99.90
21115;DHT22;10715;48.546;9.896;2023-06-22T06:50:38;22.10;99.90
21115;DHT22;10715;48.546;9.896;2023-06-22T06:55:33;22.40;99.90
21115;DHT22;10715;48.546;9.896;2023-06-22T06:57:59;22.60;99.90
21115;DHT22;10715;48.546;9.896;2023-06-22T07:00:25;22.80;99.90
21115;DHT22;10715;48.546;9.896;2023-06-22T07:05:19;23.00;99.90
21115;DHT22;10715;48.546;9.896;2023-06-22T07:07:44;23.20;99.90
21115;DHT22;10715;48.546;9.896;2023-06-22T07:10:11;23.30;99.90
21115;DHT22;10715;48.546;9.896;2023-06-22T07:12:37;23.40;99.90
21115;DHT22;10715;48.546;9.896;2023-06-22T07:15:07;23.50;99.90
21115;DHT22;10715;48.546;9.896;2023-06-22T07:17:34;23.50;99.90
21115;DHT22;10715;48.546;9.896;2023-06-22T07:20:00;23.60;99.90
21115;DHT22;10715;48.546;9.896;2023-06-22T07:22:26;23.60;99.90
21115;DHT22;10715;48.546;9.896;2023-06-22T07:24:52;23.70;99.90
21115;DHT22;10715;48.546;9.896;2023-06-22T07:27:18;23.80;99.90
21115;DHT22;10715;48.546;9.896;2023-06-22T07:29:45;23.90;99.90
21115;DHT22;10715;48.546;9.896;2023-06-22T07:32:11;23.90;99.90
21115;DHT22;10715;48.546;9.896;2023-06-22T07:34:37;23.90;99.90
21115;DHT22;10715;48.546;9.896;2023-06-22T07:37:02;24.10;99.90
21115;DHT22;10715;48.546;9.896;2023-06-22T07:39:30;24.10;99.90
21115;DHT22;10715;48.546;9.896;2023-06-22T07:41:56;24.20;99.90
21115;DHT22;10715;48.546;9.896;2023-06-22T07:44:21;24.30;99.90
21115;DHT22;10715;48.546;9.896;2023-06-22T07:46:47;24.40;99.90
21115;DHT22;10715;48.546;9.896;2023-06-22T07:49:13;24.40;99.90
21115;DHT22;10715;48.546;9.896;2023-06-22T07:51:39;24.50;99.90
21115;DHT22;10715;48.546;9.896;2023-06-22T07:54:05;24.50;99.90
21115;DHT22;10715;48.546;9.896;2023-06-22T07:56:30;24.50;99.90
21115;DHT22;10715;48.546;9.896;2023-06-22T07:58:56;24.50;99.90
21115;DHT22;10715;48.546;9.896;2023-06-22T08:01:23;24.60;99.90
21115;DHT22;10715;48.546;9.896;2023-06-22T08:03:49;24.70;99.90
21115;DHT22;10715;48.546;9.896;2023-06-22T08:06:15;24.70;99.90
21115;DHT22;10715;48.546;9.896;2023-06-22T08:08:42;24.80;99.90
21115;DHT22;10715;48.546;9.896;2023-06-22T08:11:08;24.80;99.90
21115;DHT22;10715;48.546;9.896;2023-06-22T08:13:34;24.80;99.90
21115;DHT22;10715;48.546;9.896;2023-06-22T08:16:00;24.80;99.90
21115;DHT22;10715;48.546;9.896;2023-06-22T08:18:26;24.70;99.90
21115;DHT22;10715;48.546;9.896;2023-06-22T08:20:52;24.70;99.90
21115;DHT22;10715;48.546;9.896;2023-06-22T08:23:18;24.80;99.90
21115;DHT22;10715;48.546;9.896;2023-06-22T08:25:43;24.90;99.90
21115;DHT22;10715;48.546;9.896;2023-06-22T08:28:09;25.00;99.90
21115;DHT22;10715;48.546;9.896;2023-06-22T08:30:35;25.10;99.90
21115;DHT22;10715;48.546;9.896;2023-06-22T08:33:01;25.10;99.90
21115;DHT22;10715;48.546;9.896;2023-06-22T08:35:26;25.10;99.90
21115;DHT22;10715;48.546;9.896;2023-06-22T08:37:52;25.20;99.90
21115;DHT22;10715;48.546;9.896;2023-06-22T08:40:20;25.20;99.90
21115;DHT22;10715;48.546;9.896;2023-06-22T08:42:46;25.20;99.90
21115;DHT22;10715;48.546;9.896;2023-06-22T08:45:13;25.30;99.90
21115;DHT22;10715;48.546;9.896;2023-06-22T08:47:40;25.30;99.90
21115;DHT22;10715;48.546;9.896;2023-06-22T08:50:07;25.30;99.90
21115;DHT22;10715;48.546;9.896;2023-06-22T08:52:34;25.30;99.90
21115;DHT22;10715;48.546;9.896;2023-06-22T08:55:00;25.30;99.90
21115;DHT22;10715;48.546;9.896;2023-06-22T08:57:26;25.40;99.90
21115;DHT22;10715;48.546;9.896;2023-06-22T08:59:52;25.50;99.90
21115;DHT22;10715;48.546;9.896;2023-06-22T09:02:19;25.40;99.90
21115;DHT22;10715;48.546;9.896;2023-06-22T09:04:46;25.40;99.90
21115;DHT22;10715;48.546;9.896;2023-06-22T09:07:12;25.40;99.90
21115;DHT22;10715;48.546;9.896;2023-06-22T09:09:37;25.50;99.90
21115;DHT22;10715;48.546;9.896;2023-06-22T09:12:03;25.50;99.90
21115;DHT22;10715;48.546;9.896;2023-06-22T09:14:29;25.50;99.90
21115;DHT22;10715;48.546;9.896;2023-06-22T09:16:55;25.60;99.90
21115;DHT22;10715;48.546;9.896;2023-06-22T09:19:21;25.70;99.90
21115;DHT22;10715;48.546;9.896;2023-06-22T09:21:47;25.70;99.90
21115;DHT22;10715;48.546;9.896;2023-06-22T09:24:12;25.70;99.90
21115;DHT22;10715;48.546;9.896;2023-06-22T09:26:38;25.70;99.90
21115;DHT22;10715;48.546;9.896;2023-06-22T09:29:07;25.70;99.90
21115;DHT22;10715;48.546;9.896;2023-06-22T09:31:32;25.70;99.90
21115;DHT22;10715;48.546;9.896;2023-06-22T09:33:58;25.70;99.90
21115;DHT22;10715;48.546;9.896;2023-06-22T09:36:24;25.80;99.90
21115;DHT22;10715;48.546;9.896;2023-06-22T09:38:50;25.80;99.90
21115;DHT22;10715;48.546;9.896;2023-06-22T09:41:24;25.90;99.90
21115;DHT22;10715;48.546;9.896;2023-06-22T09:43:50;25.90;99.90
21115;DHT22;10715;48.546;9.896;2023-06-22T09:46:16;26.00;99.90
21115;DHT22;10715;48.546;9.896;2023-06-22T09:48:42;26.10;99.90
21115;DHT22;10715;48.546;9.896;2023-06-22T09:51:08;26.20;99.90
21115;DHT22;10715;48.546;9.896;2023-06-22T09:53:34;26.20;99.90
21115;DHT22;10715;48.546;9.896;2023-06-22T09:56:01;26.20;99.90
21115;DHT22;10715;48.546;9.896;2023-06-22T09:58:27;26.20;99.90
21115;DHT22;10715;48.546;9.896;2023-06-22T10:00:53;26.10;99.90
21115;DHT22;10715;48.546;9.896;2023-06-22T10:03:20;26.10;99.90
21115;DHT22;10715;48.546;9.896;2023-06-22T10:05:46;26.10;99.90
21115;DHT22;10715;48.546;9.896;2023-06-22T10:08:11;26.20;99.90
21115;DHT22;10715;48.546;9.896;2023-06-22T10:10:37;26.20;99.90
21115;DHT22;10715;48.546;9.896;2023-06-22T10:13:08;26.30;99.90
21115;DHT22;10715;48.546;9.896;2023-06-22T10:15:38;26.40;99.90
21115;DHT22;10715;48.546;9.896;2023-06-22T10:18:04;26.50;99.90
21115;DHT22;10715;48.546;9.896;2023-06-22T10:20:30;26.60;99.90
21115;DHT22;10715;48.546;9.896;2023-06-22T10:22:55;26.70;99.90
21115;DHT22;10715;48.546;9.896;2023-06-22T10:25:21;26.70;99.90
21115;DHT22;10715;48.546;9.896;2023-06-22T10:27:48;26.70;99.90
21115;DHT22;10715;48.546;9.896;2023-06-22T10:30:14;26.80;99.90
21115;DHT22;10715;48.546;9.896;2023-06-22T10:32:41;26.90;99.90
21115;DHT22;10715;48.546;9.896;2023-06-22T10:35:08;27.00;99.90
21115;DHT22;10715;48.546;9.896;2023-06-22T10:37:34;27.00;99.90
21115;DHT22;10715;48.546;9.896;2023-06-22T10:39:59;27.00;99.90
21115;DHT22;10715;48.546;9.896;2023-06-22T10:42:25;27.00;99.90
21115;DHT22;10715;48.546;9.896;2023-06-22T10:44:51;27.10;99.90
21115;DHT22;10715;48.546;9.896;2023-06-22T10:47:16;27.20;99.90
21115;DHT22;10715;48.546;9.896;2023-06-22T10:49:42;27.20;99.90
21115;DHT22;10715;48.546;9.896;2023-06-22T10:52:08;27.20;99.90
21115;DHT22;10715;48.546;9.896;2023-06-22T10:54:37;27.30;99.90
21115;DHT22;10715;48.546;9.896;2023-06-22T10:57:03;27.40;99.90
21115;DHT22;10715;48.546;9.896;2023-06-22T10:59:29;27.40;99.90
21115;DHT22;10715;48.546;9.896;2023-06-22T11:01:56;27.50;99.90
21115;DHT22;10715;48.546;9.896;2023-06-22T11:04:22;27.60;99.90
21115;DHT22;10715;48.546;9.896;2023-06-22T11:06:48;27.70;99.90
21115;DHT22;10715;48.546;9.896;2023-06-22T11:09:15;27.70;99.90
21115;DHT22;10715;48.546;9.896;2023-06-22T11:11:47;27.70;99.90
21115;DHT22;10715;48.546;9.896;2023-06-22T11:14:13;27.70;99.90
21115;DHT22;10715;48.546;9.896;2023-06-22T11:16:39;27.70;99.90
21115;DHT22;10715;48.546;9.896;2023-06-22T11:19:05;27.70;99.90
21115;DHT22;10715;48.546;9.896;2023-06-22T11:21:31;27.70;99.90
21115;DHT22;10715;48.546;9.896;2023-06-22T11:23:58;27.70;99.90
21115;DHT22;10715;48.546;9.896;2023-06-22T11:26:24;27.80;99.90
21115;DHT22;10715;48.546;9.896;2023-06-22T11:28:52;27.80;99.90
21115;DHT22;10715;48.546;9.896;2023-06-22T11:31:18;27.80;99.90
21115;DHT22;10715;48.546;9.896;2023-06-22T11:33:44;27.80;99.90
21115;DHT22;10715;48.546;9.896;2023-06-22T11:36:13;27.80;99.90
21115;DHT22;10715;48.546;9.896;2023-06-22T11:38:39;27.90;99.90
21115;DHT22;10715;48.546;9.896;2023-06-22T11:41:06;27.90;99.90
21115;DHT22;10715;48.546;9.896;2023-06-22T11:43:32;27.90;99.90
21115;DHT22;10715;48.546;9.896;2023-06-22T11:45:58;27.90;99.90
21115;DHT22;10715;48.546;9.896;2023-06-22T11:48:24;28.00;99.90
21115;DHT22;10715;48.546;9.896;2023-06-22T11:50:50;28.00;99.90
21115;DHT22;10715;48.546;9.896;2023-06-22T11:53:16;28.10;99.90
21115;DHT22;10715;48.546;9.896;2023-06-22T11:55:43;28.20;99.90
21115;DHT22;10715;48.546;9.896;2023-06-22T11:58:09;28.20;99.90
21115;DHT22;10715;48.546;9.896;2023-06-22T12:00:35;28.20;99.90
21115;DHT22;10715;48.546;9.896;2023-06-22T12:03:01;28.20;99.90
21115;DHT22;10715;48.546;9.896;2023-06-22T12:05:26;28.20;99.90
21115;DHT22;10715;48.546;9.896;2023-06-22T12:07:54;28.20;99.90
21115;DHT22;10715;48.546;9.896;2023-06-22T12:10:21;28.20;99.90
21115;DHT22;10715;48.546;9.896;2023-06-22T12:12:47;28.20;99.90
21115;DHT22;10715;48.546;9.896;2023-06-22T12:15:12;28.20;99.90
21115;DHT22;10715;48.546;9.896;2023-06-22T12:17:40;28.20;99.90
21115;DHT22;10715;48.546;9.896;2023-06-22T12:20:06;28.20;99.90
21115;DHT22;10715;48.546;9.896;2023-06-22T12:22:33;28.20;99.90
21115;DHT22;10715;48.546;9.896;2023-06-22T12:24:59;28.20;99.90
21115;DHT22;10715;48.546;9.896;2023-06-22T12:27:25;28.20;99.90
21115;DHT22;10715;48.546;9.896;2023-06-22T12:29:51;28.30;99.90
21115;DHT22;10715;48.546;9.896;2023-06-22T12:32:17;28.30;99.90
21115;DHT22;10715;48.546;9.896;2023-06-22T12:34:44;28.30;99.90
21115;DHT22;10715;48.546;9.896;2023-06-22T12:37:10;28.40;99.90
21115;DHT22;10715;48.546;9.896;2023-06-22T12:39:36;28.40;99.90
21115;DHT22;10715;48.546;9.896;2023-06-22T12:42:02;28.40;99.90
21115;DHT22;10715;48.546;9.896;2023-06-22T12:44:27;28.40;99.90
21115;DHT22;10715;48.546;9.896;2023-06-22T12:46:53;28.50;99.90
21115;DHT22;10715;48.546;9.896;2023-06-22T12:49:19;28.50;99.90
21115;DHT22;10715;48.546;9.896;2023-06-22T12:51:45;28.50;99.90
21115;DHT22;10715;48.546;9.896;2023-06-22T12:54:11;28.50;99.90
21115;DHT22;10715;48.546;9.896;2023-06-22T12:56:38;28.40;99.90
21115;DHT22;10715;48.546;9.896;2023-06-22T12:59:04;28.30;99.90
21115;DHT22;10715;48.546;9.896;2023-06-22T13:01:30;28.30;99.90
21115;DHT22;10715;48.546;9.896;2023-06-22T13:04:00;28.30;99.90
21115;DHT22;10715;48.546;9.896;2023-06-22T13:06:26;28.30;99.90
21115;DHT22;10715;48.546;9.896;2023-06-22T13:08:51;28.30;99.90
21115;DHT22;10715;48.546;9.896;2023-06-22T13:11:17;28.30;99.90
21115;DHT22;10715;48.546;9.896;2023-06-22T13:13:45;28.30;99.90
21115;DHT22;10715;48.546;9.896;2023-06-22T13:16:11;28.30;99.90
21115;DHT22;10715;48.546;9.896;2023-06-22T13:18:37;28.30;99.90
21115;DHT22;10715;48.546;9.896;2023-06-22T13:21:03;28.30;99.90
21115;DHT22;10715;48.546;9.896;2023-06-22T13:23:29;28.30;99.90
21115;DHT22;10715;48.546;9.896;2023-06-22T13:25:55;28.30;99.90
21115;DHT22;10715;48.546;9.896;2023-06-22T13:28:20;28.40;99.90
21115;DHT22;10715;48.546;9.896;2023-06-22T13:30:47;28.40;99.90
21115;DHT22;10715;48.546;9.896;2023-06-22T13:33:16;28.40;99.90
21115;DHT22;10715;48.546;9.896;2023-06-22T13:35:42;28.40;99.90
21115;DHT22;10715;48.546;9.896;2023-06-22T13:38:08;28.50;99.90
21115;DHT22;10715;48.546;9.896;2023-06-22T13:40:35;28.40;99.90
21115;DHT22;10715;48.546;9.896;2023-06-22T13:43:00;28.30;99.90
21115;DHT22;10715;48.546;9.896;2023-06-22T13:45:26;28.30;99.90
21115;DHT22;10715;48.546;9.896;2023-06-22T13:47:52;28.30;99.90
21115;DHT22;10715;48.546;9.896;2023-06-22T13:50:18;28.40;99.90
21115;DHT22;10715;48.546;9.896;2023-06-22T13:52:44;28.40;99.90
21115;DHT22;10715;48.546;9.896;2023-06-22T13:55:10;28.40;99.90
21115;DHT22;10715;48.546;9.896;2023-06-22T13:57:36;28.40;99.90
21115;DHT22;10715;48.546;9.896;2023-06-22T14:00:03;28.40;99.90
21115;DHT22;10715;48.546;9.896;2023-06-22T14:02:30;28.50;99.90
21115;DHT22;10715;48.546;9.896;2023-06-22T14:04:56;28.50;99.90
21115;DHT22;10715;48.546;9.896;2023-06-22T14:07:22;28.50;99.90
21115;DHT22;10715;48.546;9.896;2023-06-22T14:09:49;28.50;99.90
21115;DHT22;10715;48.546;9.896;2023-06-22T14:12:15;28.50;99.90
21115;DHT22;10715;48.546;9.896;2023-06-22T14:14:43;28.50;99.90
21115;DHT22;10715;48.546;9.896;2023-06-22T14:17:10;28.50;99.90
21115;DHT22;10715;48.546;9.896;2023-06-22T14:19:36;28.50;99.90
21115;DHT22;10715;48.546;9.896;2023-06-22T14:22:02;28.50;99.90
21115;DHT22;10715;48.546;9.896;2023-06-22T14:24:28;28.50;99.90
21115;DHT22;10715;48.546;9.896;2023-06-22T14:26:54;28.50;99.90
21115;DHT22;10715;48.546;9.896;2023-06-22T14:29:21;28.50;99.90
21115;DHT22;10715;48.546;9.896;2023-06-22T14:31:47;28.60;99.90
21115;DHT22;10715;48.546;9.896;2023-06-22T14:34:13;28.60;99.90
21115;DHT22;10715;48.546;9.896;2023-06-22T14:36:39;28.60;99.90
21115;DHT22;10715;48.546;9.896;2023-06-22T14:39:04;28.60;99.90
21115;DHT22;10715;48.546;9.896;2023-06-22T14:41:31;28.70;99.90
21115;DHT22;10715;48.546;9.896;2023-06-22T14:43:57;28.70;99.90
21115;DHT22;10715;48.546;9.896;2023-06-22T14:46:22;28.70;99.90
21115;DHT22;10715;48.546;9.896;2023-06-22T14:48:48;28.70;99.90
21115;DHT22;10715;48.546;9.896;2023-06-22T14:51:14;28.80;99.90
21115;DHT22;10715;48.546;9.896;2023-06-22T14:53:40;28.80;99.90
21115;DHT22;10715;48.546;9.896;2023-06-22T14:56:06;28.90;99.90
21115;DHT22;10715;48.546;9.896;2023-06-22T14:58:32;28.90;99.90
21115;DHT22;10715;48.546;9.896;2023-06-22T15:01:07;28.90;99.90
21115;DHT22;10715;48.546;9.896;2023-06-22T15:03:36;28.90;99.90
21115;DHT22;10715;48.546;9.896;2023-06-22T15:06:02;28.90;99.90
21115;DHT22;10715;48.546;9.896;2023-06-22T15:08:29;28.90;99.90
21115;DHT22;10715;48.546;9.896;2023-06-22T15:10:55;28.90;99.90
21115;DHT22;10715;48.546;9.896;2023-06-22T15:13:21;28.80;99.90
21115;DHT22;10715;48.546;9.896;2023-06-22T15:15:48;28.80;99.90
21115;DHT22;10715;48.546;9.896;2023-06-22T15:18:14;28.80;99.90
21115;DHT22;10715;48.546;9.896;2023-06-22T15:20:41;28.80;99.90
21115;DHT22;10715;48.546;9.896;2023-06-22T15:23:10;28.80;99.90
21115;DHT22;10715;48.546;9.896;2023-06-22T15:25:35;28.80;99.90
21115;DHT22;10715;48.546;9.896;2023-06-22T15:28:01;28.80;99.90
21115;DHT22;10715;48.546;9.896;2023-06-22T15:30:28;28.80;99.90
21115;DHT22;10715;48.546;9.896;2023-06-22T15:32:54;28.80;99.90
21115;DHT22;10715;48.546;9.896;2023-06-22T15:35:21;28.80;99.90
21115;DHT22;10715;48.546;9.896;2023-06-22T15:37:47;28.80;99.90
21115;DHT22;10715;48.546;9.896;2023-06-22T15:40:12;28.80;99.90
21115;DHT22;10715;48.546;9.896;2023-06-22T15:42:38;28.80;99.90
21115;DHT22;10715;48.546;9.896;2023-06-22T15:45:05;28.80;99.90
21115;DHT22;10715;48.546;9.896;2023-06-22T15:47:30;28.80;99.90